sensor_id;sensor_type;location;lat;lon;timestamp;P1;durP1;ratioP1;P2;durP2;ratioP2
1358;SDS011;673;48.098;14.422;2022-12-07T00:00:53;7.57;;;6.67;;
1358;SDS011;673;48.098;14.422;2022-12-07T00:03:20;13.93;;;8.23;;
1358;SDS011;673;48.098;14.422;2022-12-07T00:05:47;14.27;;;8.30;;
1358;SDS011;673;48.098;14.422;2022-12-07T00:08:14;9.00;;;7.20;;
1358;SDS011;673;48.098;14.422;2022-12-07T00:10:43;9.30;;;7.23;;
1358;SDS011;673;48.098;14.422;2022-12-07T00:13:10;10.67;;;7.37;;
1358;SDS011;673;48.098;14.422;2022-12-07T00:15:37;12.47;;;8.73;;
1358;SDS011;673;48.098;14.422;2022-12-07T00:18:04;12.70;;;8.40;;
1358;SDS011;673;48.098;14.422;2022-12-07T00:20:31;12.20;;;9.30;;
1358;SDS011;673;48.098;14.422;2022-12-07T00:22:58;12.93;;;11.30;;
1358;SDS011;673;48.098;14.422;2022-12-07T00:25:25;14.23;;;8.83;;
1358;SDS011;673;48.098;14.422;2022-12-07T00:27:54;12.77;;;9.30;;
1358;SDS011;673;48.098;14.422;2022-12-07T00:30:21;10.13;;;8.90;;
1358;SDS011;673;48.098;14.422;2022-12-07T00:32:49;14.03;;;9.63;;
1358;SDS011;673;48.098;14.422;2022-12-07T00:35:16;11.73;;;8.17;;
1358;SDS011;673;48.098;14.422;2022-12-07T00:37:43;14.30;;;9.67;;
1358;SDS011;673;48.098;14.422;2022-12-07T00:40:11;13.07;;;9.40;;
1358;SDS011;673;48.098;14.422;2022-12-07T00:42:38;12.43;;;9.13;;
1358;SDS011;673;48.098;14.422;2022-12-07T00:45:07;12.30;;;10.17;;
1358;SDS011;673;48.098;14.422;2022-12-07T00:47:35;10.20;;;8.37;;
1358;SDS011;673;48.098;14.422;2022-12-07T00:50:02;13.40;;;10.37;;
1358;SDS011;673;48.098;14.422;2022-12-07T00:52:29;11.07;;;9.00;;
1358;SDS011;673;48.098;14.422;2022-12-07T00:54:56;12.60;;;8.57;;
1358;SDS011;673;48.098;14.422;2022-12-07T00:57:23;16.53;;;10.23;;
1358;SDS011;673;48.098;14.422;2022-12-07T00:59:50;12.50;;;8.20;;
1358;SDS011;673;48.098;14.422;2022-12-07T01:02:21;17.17;;;10.30;;
1358;SDS011;673;48.098;14.422;2022-12-07T01:04:48;12.43;;;10.20;;
1358;SDS011;673;48.098;14.422;2022-12-07T01:07:15;14.93;;;9.27;;
1358;SDS011;673;48.098;14.422;2022-12-07T01:09:42;15.17;;;8.63;;
1358;SDS011;673;48.098;14.422;2022-12-07T01:12:09;16.50;;;9.80;;
1358;SDS011;673;48.098;14.422;2022-12-07T01:14:36;14.27;;;9.43;;
1358;SDS011;673;48.098;14.422;2022-12-07T01:17:03;12.53;;;8.30;;
1358;SDS011;673;48.098;14.422;2022-12-07T01:19:31;17.20;;;11.40;;
1358;SDS011;673;48.098;14.422;2022-12-07T01:21:58;17.00;;;9.30;;
1358;SDS011;673;48.098;14.422;2022-12-07T01:24:25;11.50;;;8.17;;
1358;SDS011;673;48.098;14.422;2022-12-07T01:26:52;11.13;;;8.77;;
1358;SDS011;673;48.098;14.422;2022-12-07T01:29:19;12.40;;;8.80;;
1358;SDS011;673;48.098;14.422;2022-12-07T01:31:48;14.03;;;9.67;;
1358;SDS011;673;48.098;14.422;2022-12-07T01:34:15;13.93;;;11.07;;
1358;SDS011;673;48.098;14.422;2022-12-07T01:36:43;16.17;;;10.33;;
1358;SDS011;673;48.098;14.422;2022-12-07T01:39:10;13.40;;;10.37;;
1358;SDS011;673;48.098;14.422;2022-12-07T01:41:38;14.57;;;10.83;;
1358;SDS011;673;48.098;14.422;2022-12-07T01:44:13;14.60;;;9.80;;
1358;SDS011;673;48.098;14.422;2022-12-07T01:46:44;13.80;;;9.60;;
1358;SDS011;673;48.098;14.422;2022-12-07T01:49:14;19.37;;;10.20;;
1358;SDS011;673;48.098;14.422;2022-12-07T01:51:45;15.90;;;10.90;;
1358;SDS011;673;48.098;14.422;2022-12-07T01:54:14;11.53;;;8.90;;
1358;SDS011;673;48.098;14.422;2022-12-07T01:56:44;20.17;;;9.73;;
1358;SDS011;673;48.098;14.422;2022-12-07T01:59:14;15.40;;;11.67;;
1358;SDS011;673;48.098;14.422;2022-12-07T02:01:43;13.87;;;10.70;;
1358;SDS011;673;48.098;14.422;2022-12-07T02:04:10;15.03;;;9.20;;
1358;SDS011;673;48.098;14.422;2022-12-07T02:06:38;11.17;;;8.50;;
1358;SDS011;673;48.098;14.422;2022-12-07T02:09:08;19.83;;;10.90;;
1358;SDS011;673;48.098;14.422;2022-12-07T02:11:35;14.07;;;9.40;;
1358;SDS011;673;48.098;14.422;2022-12-07T02:14:02;15.23;;;9.40;;
1358;SDS011;673;48.098;14.422;2022-12-07T02:16:31;17.47;;;10.40;;
1358;SDS011;673;48.098;14.422;2022-12-07T02:22:00;13.97;;;10.33;;
1358;SDS011;673;48.098;14.422;2022-12-07T02:24:45;15.50;;;9.70;;
1358;SDS011;673;48.098;14.422;2022-12-07T02:30:13;15.17;;;9.07;;
1358;SDS011;673;48.098;14.422;2022-12-07T02:32:44;12.70;;;10.07;;
1358;SDS011;673;48.098;14.422;2022-12-07T02:35:17;12.97;;;9.67;;
1358;SDS011;673;48.098;14.422;2022-12-07T02:37:51;13.33;;;10.00;;
1358;SDS011;673;48.098;14.422;2022-12-07T02:40:27;15.83;;;10.93;;
1358;SDS011;673;48.098;14.422;2022-12-07T02:43:02;19.20;;;11.67;;
1358;SDS011;673;48.098;14.422;2022-12-07T02:45:35;11.20;;;8.80;;
1358;SDS011;673;48.098;14.422;2022-12-07T02:48:04;20.07;;;10.17;;
1358;SDS011;673;48.098;14.422;2022-12-07T02:50:33;15.83;;;9.80;;
1358;SDS011;673;48.098;14.422;2022-12-07T02:53:00;19.93;;;8.63;;
1358;SDS011;673;48.098;14.422;2022-12-07T02:55:29;16.60;;;8.77;;
1358;SDS011;673;48.098;14.422;2022-12-07T02:58:06;18.43;;;9.47;;
1358;SDS011;673;48.098;14.422;2022-12-07T03:00:48;15.83;;;9.00;;
1358;SDS011;673;48.098;14.422;2022-12-07T03:03:20;14.40;;;9.13;;
1358;SDS011;673;48.098;14.422;2022-12-07T03:05:51;16.23;;;10.60;;
1358;SDS011;673;48.098;14.422;2022-12-07T03:08:30;15.40;;;9.60;;
1358;SDS011;673;48.098;14.422;2022-12-07T03:11:04;15.57;;;9.57;;
1358;SDS011;673;48.098;14.422;2022-12-07T03:13:34;15.87;;;9.20;;
1358;SDS011;673;48.098;14.422;2022-12-07T03:16:10;13.50;;;9.90;;
1358;SDS011;673;48.098;14.422;2022-12-07T03:18:41;14.23;;;9.10;;
1358;SDS011;673;48.098;14.422;2022-12-07T03:21:13;16.70;;;10.30;;
1358;SDS011;673;48.098;14.422;2022-12-07T03:23:44;15.60;;;10.80;;
1358;SDS011;673;48.098;14.422;2022-12-07T03:26:15;14.70;;;9.67;;
1358;SDS011;673;48.098;14.422;2022-12-07T03:28:45;16.07;;;10.03;;
1358;SDS011;673;48.098;14.422;2022-12-07T03:31:19;17.00;;;8.57;;
1358;SDS011;673;48.098;14.422;2022-12-07T03:33:49;11.97;;;9.70;;
1358;SDS011;673;48.098;14.422;2022-12-07T03:36:23;11.93;;;8.73;;
1358;SDS011;673;48.098;14.422;2022-12-07T03:38:56;16.17;;;9.93;;
1358;SDS011;673;48.098;14.422;2022-12-07T03:41:29;15.87;;;9.43;;
1358;SDS011;673;48.098;14.422;2022-12-07T03:44:00;16.07;;;10.40;;
1358;SDS011;673;48.098;14.422;2022-12-07T03:46:31;14.50;;;10.30;;
1358;SDS011;673;48.098;14.422;2022-12-07T03:49:06;15.03;;;9.30;;
1358;SDS011;673;48.098;14.422;2022-12-07T03:51:38;11.57;;;8.93;;
1358;SDS011;673;48.098;14.422;2022-12-07T03:54:13;10.83;;;7.60;;
1358;SDS011;673;48.098;14.422;2022-12-07T03:56:46;13.73;;;9.73;;
1358;SDS011;673;48.098;14.422;2022-12-07T03:59:14;14.70;;;8.33;;
1358;SDS011;673;48.098;14.422;2022-12-07T04:01:44;13.07;;;8.40;;
1358;SDS011;673;48.098;14.422;2022-12-07T04:04:17;12.93;;;9.07;;
1358;SDS011;673;48.098;14.422;2022-12-07T04:06:44;15.20;;;10.00;;
1358;SDS011;673;48.098;14.422;2022-12-07T04:09:11;14.70;;;7.60;;
1358;SDS011;673;48.098;14.422;2022-12-07T04:11:39;13.80;;;9.80;;
1358;SDS011;673;48.098;14.422;2022-12-07T04:14:06;14.90;;;8.93;;
1358;SDS011;673;48.098;14.422;2022-12-07T04:16:46;16.57;;;9.67;;
1358;SDS011;673;48.098;14.422;2022-12-07T04:19:14;11.97;;;6.93;;
1358;SDS011;673;48.098;14.422;2022-12-07T04:21:42;10.93;;;8.37;;
1358;SDS011;673;48.098;14.422;2022-12-07T04:24:11;12.67;;;9.00;;
1358;SDS011;673;48.098;14.422;2022-12-07T04:26:38;15.20;;;10.13;;
1358;SDS011;673;48.098;14.422;2022-12-07T04:29:05;9.67;;;8.67;;
1358;SDS011;673;48.098;14.422;2022-12-07T04:31:32;10.07;;;6.63;;
1358;SDS011;673;48.098;14.422;2022-12-07T04:34:01;13.50;;;8.63;;
1358;SDS011;673;48.098;14.422;2022-12-07T04:36:28;10.90;;;8.00;;
1358;SDS011;673;48.098;14.422;2022-12-07T04:38:55;9.90;;;6.10;;
1358;SDS011;673;48.098;14.422;2022-12-07T04:41:23;9.97;;;7.13;;
1358;SDS011;673;48.098;14.422;2022-12-07T04:43:53;9.67;;;7.33;;
1358;SDS011;673;48.098;14.422;2022-12-07T04:46:21;16.30;;;7.23;;
1358;SDS011;673;48.098;14.422;2022-12-07T04:48:48;6.83;;;6.00;;
1358;SDS011;673;48.098;14.422;2022-12-07T04:51:18;9.50;;;6.30;;
1358;SDS011;673;48.098;14.422;2022-12-07T04:53:46;8.70;;;6.50;;
1358;SDS011;673;48.098;14.422;2022-12-07T04:56:14;9.97;;;7.77;;
1358;SDS011;673;48.098;14.422;2022-12-07T04:58:42;11.33;;;5.10;;
1358;SDS011;673;48.098;14.422;2022-12-07T05:01:09;8.93;;;5.97;;
1358;SDS011;673;48.098;14.422;2022-12-07T05:03:36;8.17;;;6.03;;
1358;SDS011;673;48.098;14.422;2022-12-07T05:06:04;8.17;;;4.93;;
1358;SDS011;673;48.098;14.422;2022-12-07T05:08:33;7.20;;;5.60;;
1358;SDS011;673;48.098;14.422;2022-12-07T05:11:01;8.50;;;5.83;;
1358;SDS011;673;48.098;14.422;2022-12-07T05:13:29;8.00;;;5.50;;
1358;SDS011;673;48.098;14.422;2022-12-07T05:15:56;6.90;;;6.30;;
1358;SDS011;673;48.098;14.422;2022-12-07T05:18:23;9.07;;;6.60;;
1358;SDS011;673;48.098;14.422;2022-12-07T05:20:50;7.60;;;6.00;;
1358;SDS011;673;48.098;14.422;2022-12-07T05:23:17;7.60;;;5.70;;
1358;SDS011;673;48.098;14.422;2022-12-07T05:25:46;6.97;;;5.07;;
1358;SDS011;673;48.098;14.422;2022-12-07T05:28:13;7.53;;;5.60;;
1358;SDS011;673;48.098;14.422;2022-12-07T05:30:40;10.70;;;7.47;;
1358;SDS011;673;48.098;14.422;2022-12-07T05:33:07;8.10;;;5.30;;
1358;SDS011;673;48.098;14.422;2022-12-07T05:35:35;8.17;;;6.60;;
1358;SDS011;673;48.098;14.422;2022-12-07T05:38:02;7.30;;;6.20;;
1358;SDS011;673;48.098;14.422;2022-12-07T05:40:29;11.13;;;8.63;;
1358;SDS011;673;48.098;14.422;2022-12-07T05:42:58;9.83;;;7.80;;
1358;SDS011;673;48.098;14.422;2022-12-07T05:45:25;9.13;;;6.40;;
1358;SDS011;673;48.098;14.422;2022-12-07T05:47:51;10.73;;;8.10;;
1358;SDS011;673;48.098;14.422;2022-12-07T05:50:18;9.00;;;5.53;;
1358;SDS011;673;48.098;14.422;2022-12-07T05:52:45;9.50;;;6.83;;
1358;SDS011;673;48.098;14.422;2022-12-07T05:55:12;10.90;;;9.00;;
1358;SDS011;673;48.098;14.422;2022-12-07T05:57:39;9.83;;;6.93;;
1358;SDS011;673;48.098;14.422;2022-12-07T06:00:28;11.60;;;9.17;;
1358;SDS011;673;48.098;14.422;2022-12-07T06:02:54;9.90;;;7.03;;
1358;SDS011;673;48.098;14.422;2022-12-07T06:05:21;12.93;;;9.10;;
1358;SDS011;673;48.098;14.422;2022-12-07T06:07:48;9.17;;;7.40;;
1358;SDS011;673;48.098;14.422;2022-12-07T06:10:16;11.07;;;8.50;;
1358;SDS011;673;48.098;14.422;2022-12-07T06:12:43;11.40;;;8.63;;
1358;SDS011;673;48.098;14.422;2022-12-07T06:15:11;10.27;;;7.13;;
1358;SDS011;673;48.098;14.422;2022-12-07T06:17:40;8.47;;;6.60;;
1358;SDS011;673;48.098;14.422;2022-12-07T06:20:08;9.97;;;8.03;;
1358;SDS011;673;48.098;14.422;2022-12-07T06:22:35;11.20;;;8.70;;
1358;SDS011;673;48.098;14.422;2022-12-07T06:25:02;8.43;;;7.03;;
1358;SDS011;673;48.098;14.422;2022-12-07T06:27:29;8.67;;;7.00;;
1358;SDS011;673;48.098;14.422;2022-12-07T06:29:57;13.13;;;7.43;;
1358;SDS011;673;48.098;14.422;2022-12-07T06:32:24;9.17;;;6.90;;
1358;SDS011;673;48.098;14.422;2022-12-07T06:34:53;10.83;;;8.80;;
1358;SDS011;673;48.098;14.422;2022-12-07T06:37:19;12.47;;;8.67;;
1358;SDS011;673;48.098;14.422;2022-12-07T06:39:46;11.30;;;8.90;;
1358;SDS011;673;48.098;14.422;2022-12-07T06:42:13;10.27;;;8.13;;
1358;SDS011;673;48.098;14.422;2022-12-07T06:44:40;15.27;;;7.80;;
1358;SDS011;673;48.098;14.422;2022-12-07T06:47:07;10.73;;;8.70;;
1358;SDS011;673;48.098;14.422;2022-12-07T06:49:34;12.63;;;8.77;;
1358;SDS011;673;48.098;14.422;2022-12-07T06:52:02;12.27;;;9.00;;
1358;SDS011;673;48.098;14.422;2022-12-07T06:54:30;11.03;;;8.17;;
1358;SDS011;673;48.098;14.422;2022-12-07T06:56:57;15.40;;;10.20;;
1358;SDS011;673;48.098;14.422;2022-12-07T06:59:24;13.90;;;10.00;;
1358;SDS011;673;48.098;14.422;2022-12-07T07:01:51;8.97;;;7.60;;
1358;SDS011;673;48.098;14.422;2022-12-07T07:04:18;10.40;;;6.63;;
1358;SDS011;673;48.098;14.422;2022-12-07T07:06:45;10.57;;;7.63;;
1358;SDS011;673;48.098;14.422;2022-12-07T07:09:13;11.67;;;7.43;;
1358;SDS011;673;48.098;14.422;2022-12-07T07:11:40;14.60;;;9.77;;
1358;SDS011;673;48.098;14.422;2022-12-07T07:14:07;9.63;;;7.80;;
1358;SDS011;673;48.098;14.422;2022-12-07T07:16:34;11.13;;;8.37;;
1358;SDS011;673;48.098;14.422;2022-12-07T07:19:01;13.43;;;8.83;;
1358;SDS011;673;48.098;14.422;2022-12-07T07:21:28;10.20;;;7.30;;
1358;SDS011;673;48.098;14.422;2022-12-07T07:23:55;13.00;;;8.80;;
1358;SDS011;673;48.098;14.422;2022-12-07T07:26:23;10.50;;;7.97;;
1358;SDS011;673;48.098;14.422;2022-12-07T07:28:50;12.57;;;8.70;;
1358;SDS011;673;48.098;14.422;2022-12-07T07:31:17;10.50;;;7.43;;
1358;SDS011;673;48.098;14.422;2022-12-07T07:33:44;12.63;;;9.27;;
1358;SDS011;673;48.098;14.422;2022-12-07T07:36:11;10.60;;;8.50;;
1358;SDS011;673;48.098;14.422;2022-12-07T07:38:38;11.60;;;8.17;;
1358;SDS011;673;48.098;14.422;2022-12-07T07:41:05;9.27;;;7.70;;
1358;SDS011;673;48.098;14.422;2022-12-07T07:43:33;14.90;;;8.40;;
1358;SDS011;673;48.098;14.422;2022-12-07T07:46:00;10.53;;;7.50;;
1358;SDS011;673;48.098;14.422;2022-12-07T07:48:27;10.63;;;8.00;;
1358;SDS011;673;48.098;14.422;2022-12-07T07:50:54;10.80;;;7.97;;
1358;SDS011;673;48.098;14.422;2022-12-07T07:53:21;11.70;;;9.13;;
1358;SDS011;673;48.098;14.422;2022-12-07T07:55:51;14.33;;;10.87;;
1358;SDS011;673;48.098;14.422;2022-12-07T07:58:18;17.17;;;13.07;;
1358;SDS011;673;48.098;14.422;2022-12-07T08:00:47;32.10;;;21.97;;
1358;SDS011;673;48.098;14.422;2022-12-07T08:03:13;13.40;;;10.00;;
1358;SDS011;673;48.098;14.422;2022-12-07T08:05:40;26.87;;;18.43;;
1358;SDS011;673;48.098;14.422;2022-12-07T08:08:07;31.00;;;22.10;;
1358;SDS011;673;48.098;14.422;2022-12-07T08:10:34;17.80;;;12.90;;
1358;SDS011;673;48.098;14.422;2022-12-07T08:13:02;11.50;;;8.90;;
1358;SDS011;673;48.098;14.422;2022-12-07T08:15:40;11.43;;;8.07;;
1358;SDS011;673;48.098;14.422;2022-12-07T08:18:09;13.87;;;9.87;;
1358;SDS011;673;48.098;14.422;2022-12-07T08:20:38;12.10;;;8.13;;
1358;SDS011;673;48.098;14.422;2022-12-07T08:23:06;13.50;;;10.57;;
1358;SDS011;673;48.098;14.422;2022-12-07T08:25:34;12.10;;;9.40;;
1358;SDS011;673;48.098;14.422;2022-12-07T08:28:01;16.17;;;12.63;;
1358;SDS011;673;48.098;14.422;2022-12-07T08:30:28;12.80;;;10.90;;
1358;SDS011;673;48.098;14.422;2022-12-07T08:32:56;15.43;;;11.10;;
1358;SDS011;673;48.098;14.422;2022-12-07T08:35:24;11.47;;;8.40;;
1358;SDS011;673;48.098;14.422;2022-12-07T08:37:52;11.90;;;8.90;;
1358;SDS011;673;48.098;14.422;2022-12-07T08:40:19;17.40;;;12.63;;
1358;SDS011;673;48.098;14.422;2022-12-07T08:42:48;13.93;;;10.80;;
1358;SDS011;673;48.098;14.422;2022-12-07T08:45:16;13.93;;;11.47;;
1358;SDS011;673;48.098;14.422;2022-12-07T08:47:44;18.53;;;9.73;;
1358;SDS011;673;48.098;14.422;2022-12-07T08:50:16;14.73;;;11.17;;
1358;SDS011;673;48.098;14.422;2022-12-07T08:52:45;14.67;;;10.17;;
1358;SDS011;673;48.098;14.422;2022-12-07T08:55:15;16.90;;;12.77;;
1358;SDS011;673;48.098;14.422;2022-12-07T08:57:42;22.10;;;18.73;;
1358;SDS011;673;48.098;14.422;2022-12-07T09:00:09;15.13;;;13.33;;
1358;SDS011;673;48.098;14.422;2022-12-07T09:02:37;12.40;;;10.20;;
1358;SDS011;673;48.098;14.422;2022-12-07T09:05:04;15.00;;;10.07;;
1358;SDS011;673;48.098;14.422;2022-12-07T09:07:31;12.77;;;9.70;;
1358;SDS011;673;48.098;14.422;2022-12-07T09:10:01;23.80;;;21.00;;
1358;SDS011;673;48.098;14.422;2022-12-07T09:12:29;37.00;;;26.27;;
1358;SDS011;673;48.098;14.422;2022-12-07T09:14:56;51.13;;;32.20;;
1358;SDS011;673;48.098;14.422;2022-12-07T09:17:23;39.93;;;27.13;;
1358;SDS011;673;48.098;14.422;2022-12-07T09:19:50;31.43;;;23.80;;
1358;SDS011;673;48.098;14.422;2022-12-07T09:22:17;37.63;;;21.50;;
1358;SDS011;673;48.098;14.422;2022-12-07T09:24:44;12.53;;;8.33;;
1358;SDS011;673;48.098;14.422;2022-12-07T09:27:13;15.27;;;8.50;;
1358;SDS011;673;48.098;14.422;2022-12-07T09:29:41;15.90;;;11.60;;
1358;SDS011;673;48.098;14.422;2022-12-07T09:32:08;10.60;;;8.40;;
1358;SDS011;673;48.098;14.422;2022-12-07T09:34:35;10.50;;;8.47;;
1358;SDS011;673;48.098;14.422;2022-12-07T09:37:02;12.67;;;9.03;;
1358;SDS011;673;48.098;14.422;2022-12-07T09:39:29;16.17;;;9.87;;
1358;SDS011;673;48.098;14.422;2022-12-07T09:41:56;12.70;;;8.43;;
1358;SDS011;673;48.098;14.422;2022-12-07T09:44:26;11.27;;;7.23;;
1358;SDS011;673;48.098;14.422;2022-12-07T09:46:54;12.70;;;9.50;;
1358;SDS011;673;48.098;14.422;2022-12-07T09:49:22;14.90;;;10.03;;
1358;SDS011;673;48.098;14.422;2022-12-07T09:51:59;16.17;;;9.87;;
1358;SDS011;673;48.098;14.422;2022-12-07T09:54:28;15.77;;;11.10;;
1358;SDS011;673;48.098;14.422;2022-12-07T09:56:56;9.50;;;6.70;;
1358;SDS011;673;48.098;14.422;2022-12-07T09:59:25;9.80;;;7.17;;
1358;SDS011;673;48.098;14.422;2022-12-07T10:01:53;9.83;;;6.73;;
1358;SDS011;673;48.098;14.422;2022-12-07T10:04:22;11.53;;;8.20;;
1358;SDS011;673;48.098;14.422;2022-12-07T10:06:50;9.27;;;7.90;;
1358;SDS011;673;48.098;14.422;2022-12-07T10:09:18;10.23;;;7.33;;
1358;SDS011;673;48.098;14.422;2022-12-07T10:11:59;9.23;;;7.83;;
1358;SDS011;673;48.098;14.422;2022-12-07T10:14:33;9.97;;;7.80;;
1358;SDS011;673;48.098;14.422;2022-12-07T10:17:02;10.47;;;6.70;;
1358;SDS011;673;48.098;14.422;2022-12-07T10:19:49;7.27;;;6.00;;
1358;SDS011;673;48.098;14.422;2022-12-07T10:22:16;8.90;;;5.73;;
1358;SDS011;673;48.098;14.422;2022-12-07T10:24:45;6.00;;;5.20;;
1358;SDS011;673;48.098;14.422;2022-12-07T10:27:19;9.93;;;6.60;;
1358;SDS011;673;48.098;14.422;2022-12-07T10:29:58;7.83;;;5.97;;
1358;SDS011;673;48.098;14.422;2022-12-07T10:32:28;7.80;;;5.87;;
1358;SDS011;673;48.098;14.422;2022-12-07T10:37:47;8.10;;;5.63;;
1358;SDS011;673;48.098;14.422;2022-12-07T10:40:25;6.77;;;4.70;;
1358;SDS011;673;48.098;14.422;2022-12-07T10:43:01;7.73;;;6.10;;
1358;SDS011;673;48.098;14.422;2022-12-07T10:45:31;7.80;;;5.70;;
1358;SDS011;673;48.098;14.422;2022-12-07T10:48:00;12.43;;;7.77;;
1358;SDS011;673;48.098;14.422;2022-12-07T10:50:49;6.67;;;5.60;;
1358;SDS011;673;48.098;14.422;2022-12-07T10:53:28;9.67;;;7.20;;
1358;SDS011;673;48.098;14.422;2022-12-07T10:56:13;7.43;;;6.43;;
1358;SDS011;673;48.098;14.422;2022-12-07T10:58:53;10.33;;;6.63;;
1358;SDS011;673;48.098;14.422;2022-12-07T11:01:30;6.90;;;4.43;;
1358;SDS011;673;48.098;14.422;2022-12-07T11:04:15;7.50;;;5.07;;
1358;SDS011;673;48.098;14.422;2022-12-07T11:06:52;7.57;;;5.40;;
1358;SDS011;673;48.098;14.422;2022-12-07T11:09:33;7.00;;;6.20;;
1358;SDS011;673;48.098;14.422;2022-12-07T11:12:22;6.80;;;4.93;;
1358;SDS011;673;48.098;14.422;2022-12-07T11:15:01;8.47;;;6.40;;
1358;SDS011;673;48.098;14.422;2022-12-07T11:17:40;7.87;;;6.40;;
1358;SDS011;673;48.098;14.422;2022-12-07T11:20:17;8.47;;;5.87;;
1358;SDS011;673;48.098;14.422;2022-12-07T11:22:56;8.53;;;5.67;;
1358;SDS011;673;48.098;14.422;2022-12-07T11:25:30;11.63;;;6.53;;
1358;SDS011;673;48.098;14.422;2022-12-07T11:28:04;6.90;;;5.10;;
1358;SDS011;673;48.098;14.422;2022-12-07T11:30:46;6.50;;;5.13;;
1358;SDS011;673;48.098;14.422;2022-12-07T11:33:25;8.63;;;6.57;;
1358;SDS011;673;48.098;14.422;2022-12-07T11:36:05;7.67;;;5.50;;
1358;SDS011;673;48.098;14.422;2022-12-07T11:38:43;7.90;;;6.03;;
1358;SDS011;673;48.098;14.422;2022-12-07T11:41:14;10.67;;;6.80;;
1358;SDS011;673;48.098;14.422;2022-12-07T11:43:52;8.13;;;6.20;;
1358;SDS011;673;48.098;14.422;2022-12-07T11:46:23;8.60;;;6.40;;
1358;SDS011;673;48.098;14.422;2022-12-07T11:48:57;9.80;;;5.97;;
1358;SDS011;673;48.098;14.422;2022-12-07T11:51:29;10.97;;;6.77;;
1358;SDS011;673;48.098;14.422;2022-12-07T11:54:02;9.77;;;7.03;;
1358;SDS011;673;48.098;14.422;2022-12-07T11:56:37;9.43;;;5.90;;
1358;SDS011;673;48.098;14.422;2022-12-07T11:59:07;9.40;;;5.90;;
1358;SDS011;673;48.098;14.422;2022-12-07T12:01:41;10.10;;;7.40;;
1358;SDS011;673;48.098;14.422;2022-12-07T12:04:22;14.13;;;7.70;;
1358;SDS011;673;48.098;14.422;2022-12-07T12:06:58;8.23;;;6.20;;
1358;SDS011;673;48.098;14.422;2022-12-07T12:09:26;8.60;;;6.23;;
1358;SDS011;673;48.098;14.422;2022-12-07T12:12:14;16.10;;;8.90;;
1358;SDS011;673;48.098;14.422;2022-12-07T12:14:54;11.13;;;7.30;;
1358;SDS011;673;48.098;14.422;2022-12-07T12:17:36;10.20;;;6.40;;
1358;SDS011;673;48.098;14.422;2022-12-07T12:20:19;9.47;;;6.87;;
1358;SDS011;673;48.098;14.422;2022-12-07T12:22:50;9.93;;;6.43;;
1358;SDS011;673;48.098;14.422;2022-12-07T12:25:20;6.93;;;6.00;;
1358;SDS011;673;48.098;14.422;2022-12-07T12:27:52;10.47;;;6.27;;
1358;SDS011;673;48.098;14.422;2022-12-07T12:30:25;8.47;;;6.40;;
1358;SDS011;673;48.098;14.422;2022-12-07T12:33:01;9.17;;;6.20;;
1358;SDS011;673;48.098;14.422;2022-12-07T12:35:33;6.37;;;5.70;;
1358;SDS011;673;48.098;14.422;2022-12-07T12:40:58;9.00;;;6.80;;
1358;SDS011;673;48.098;14.422;2022-12-07T12:43:39;9.33;;;6.20;;
1358;SDS011;673;48.098;14.422;2022-12-07T12:46:36;7.80;;;6.03;;
1358;SDS011;673;48.098;14.422;2022-12-07T12:55:30;6.33;;;5.70;;
1358;SDS011;673;48.098;14.422;2022-12-07T12:58:33;8.47;;;5.50;;
1358;SDS011;673;48.098;14.422;2022-12-07T13:07:04;10.40;;;7.00;;
1358;SDS011;673;48.098;14.422;2022-12-07T13:09:36;7.63;;;5.43;;
1358;SDS011;673;48.098;14.422;2022-12-07T13:12:13;9.07;;;4.17;;
1358;SDS011;673;48.098;14.422;2022-12-07T13:14:43;7.20;;;5.60;;
1358;SDS011;673;48.098;14.422;2022-12-07T13:20:41;6.97;;;5.07;;
1358;SDS011;673;48.098;14.422;2022-12-07T13:23:13;8.30;;;5.00;;
1358;SDS011;673;48.098;14.422;2022-12-07T13:25:48;8.27;;;6.10;;
1358;SDS011;673;48.098;14.422;2022-12-07T13:28:21;7.40;;;5.30;;
1358;SDS011;673;48.098;14.422;2022-12-07T13:30:58;7.93;;;5.10;;
1358;SDS011;673;48.098;14.422;2022-12-07T13:33:30;7.37;;;5.77;;
1358;SDS011;673;48.098;14.422;2022-12-07T13:36:00;8.50;;;6.13;;
1358;SDS011;673;48.098;14.422;2022-12-07T13:38:28;9.07;;;5.50;;
1358;SDS011;673;48.098;14.422;2022-12-07T13:41:01;6.60;;;4.73;;
1358;SDS011;673;48.098;14.422;2022-12-07T13:43:41;6.60;;;4.63;;
1358;SDS011;673;48.098;14.422;2022-12-07T13:46:09;8.70;;;5.23;;
1358;SDS011;673;48.098;14.422;2022-12-07T13:48:43;6.30;;;5.27;;
1358;SDS011;673;48.098;14.422;2022-12-07T13:51:16;9.50;;;6.67;;
1358;SDS011;673;48.098;14.422;2022-12-07T13:53:48;10.30;;;5.07;;
1358;SDS011;673;48.098;14.422;2022-12-07T13:56:16;9.20;;;5.90;;
1358;SDS011;673;48.098;14.422;2022-12-07T13:58:44;7.33;;;5.90;;
1358;SDS011;673;48.098;14.422;2022-12-07T14:01:12;8.53;;;6.80;;
1358;SDS011;673;48.098;14.422;2022-12-07T14:03:39;9.50;;;6.90;;
1358;SDS011;673;48.098;14.422;2022-12-07T14:06:17;9.37;;;8.17;;
1358;SDS011;673;48.098;14.422;2022-12-07T14:08:50;10.77;;;7.17;;
1358;SDS011;673;48.098;14.422;2022-12-07T14:11:18;7.90;;;5.70;;
1358;SDS011;673;48.098;14.422;2022-12-07T14:13:58;6.87;;;4.17;;
1358;SDS011;673;48.098;14.422;2022-12-07T14:16:28;6.60;;;5.10;;
1358;SDS011;673;48.098;14.422;2022-12-07T14:18:57;9.60;;;6.57;;
1358;SDS011;673;48.098;14.422;2022-12-07T14:21:25;10.67;;;6.50;;
1358;SDS011;673;48.098;14.422;2022-12-07T14:24:11;12.97;;;7.53;;
1358;SDS011;673;48.098;14.422;2022-12-07T14:26:41;12.23;;;7.10;;
1358;SDS011;673;48.098;14.422;2022-12-07T14:29:20;12.73;;;7.57;;
1358;SDS011;673;48.098;14.422;2022-12-07T14:31:49;14.30;;;9.30;;
1358;SDS011;673;48.098;14.422;2022-12-07T14:34:16;21.87;;;13.67;;
1358;SDS011;673;48.098;14.422;2022-12-07T14:36:45;24.90;;;15.97;;
1358;SDS011;673;48.098;14.422;2022-12-07T14:39:12;15.10;;;8.70;;
1358;SDS011;673;48.098;14.422;2022-12-07T14:41:39;11.97;;;7.50;;
1358;SDS011;673;48.098;14.422;2022-12-07T14:44:18;12.40;;;7.30;;
1358;SDS011;673;48.098;14.422;2022-12-07T14:46:48;15.60;;;11.20;;
1358;SDS011;673;48.098;14.422;2022-12-07T14:49:16;15.20;;;9.87;;
1358;SDS011;673;48.098;14.422;2022-12-07T14:51:44;10.30;;;7.57;;
1358;SDS011;673;48.098;14.422;2022-12-07T14:54:14;11.50;;;8.57;;
1358;SDS011;673;48.098;14.422;2022-12-07T14:56:44;13.73;;;8.70;;
1358;SDS011;673;48.098;14.422;2022-12-07T14:59:14;10.33;;;6.37;;
1358;SDS011;673;48.098;14.422;2022-12-07T15:01:42;8.40;;;6.90;;
1358;SDS011;673;48.098;14.422;2022-12-07T15:04:09;14.63;;;9.40;;
1358;SDS011;673;48.098;14.422;2022-12-07T15:06:36;9.60;;;7.00;;
1358;SDS011;673;48.098;14.422;2022-12-07T15:09:04;11.07;;;7.23;;
1358;SDS011;673;48.098;14.422;2022-12-07T15:11:31;9.60;;;6.00;;
1358;SDS011;673;48.098;14.422;2022-12-07T15:13:58;8.83;;;5.87;;
1358;SDS011;673;48.098;14.422;2022-12-07T15:16:36;9.63;;;7.43;;
1358;SDS011;673;48.098;14.422;2022-12-07T15:19:06;6.90;;;5.60;;
1358;SDS011;673;48.098;14.422;2022-12-07T15:21:39;7.27;;;4.83;;
1358;SDS011;673;48.098;14.422;2022-12-07T15:24:07;8.13;;;5.67;;
1358;SDS011;673;48.098;14.422;2022-12-07T15:26:35;8.40;;;5.27;;
1358;SDS011;673;48.098;14.422;2022-12-07T15:29:02;6.90;;;5.37;;
1358;SDS011;673;48.098;14.422;2022-12-07T15:31:30;8.87;;;5.97;;
1358;SDS011;673;48.098;14.422;2022-12-07T15:33:57;9.60;;;5.60;;
1358;SDS011;673;48.098;14.422;2022-12-07T15:36:26;7.00;;;4.77;;
1358;SDS011;673;48.098;14.422;2022-12-07T15:38:55;6.80;;;5.13;;
1358;SDS011;673;48.098;14.422;2022-12-07T15:41:22;15.93;;;6.17;;
1358;SDS011;673;48.098;14.422;2022-12-07T15:43:49;17.70;;;5.43;;
1358;SDS011;673;48.098;14.422;2022-12-07T15:46:34;10.80;;;5.90;;
1358;SDS011;673;48.098;14.422;2022-12-07T15:49:02;9.67;;;6.40;;
1358;SDS011;673;48.098;14.422;2022-12-07T15:51:31;9.97;;;5.83;;